Private Wetterstation Wechselburg
Wetterdaten: Montag, 16.10.2017
Datum Zeit Temp. +2m Bodentemp. Temp.+5cm Temp. Wind Windchill X Diff Temp. Feuchte +2m Feuchte +5cm Sonnenschein Luftdruck Regen Wind Richtung Richtung Sonnenschein Taupunkt Windchill Windben
16.10.2017 00:00 8,9 C 15,0 C 9,9 C 8,8 C 8,6 C 0,0 C 86 % 82 % 0 % 1023,1 hPa 0,0 l/m 0,0 km/h (0 Bft) W-SW 247 0 min 6,7 C 8,6 C 0,0 km/h (0 Bft)
16.10.2017 00:05 8,8 C 15,0 C 9,9 C 8,7 C 8,6 C 0,0 C 86 % 82 % 0 % 1022,9 hPa 0,0 l/m 0,0 km/h (0 Bft) W-SW 247 0 min 6,6 C 8,6 C 0,0 km/h (0 Bft)
16.10.2017 00:10 8,8 C 15,0 C 9,7 C 8,7 C 8,6 C 0,0 C 86 % 82 % 0 % 1022,9 hPa 0,0 l/m 0,0 km/h (0 Bft) W-SW 247 0 min 6,6 C 8,6 C 0,0 km/h (0 Bft)
16.10.2017 00:15 8,7 C 15,0 C 9,7 C 8,7 C 8,6 C 0,0 C 86 % 82 % 0 % 1022,9 hPa 0,0 l/m 0,0 km/h (0 Bft) W-SW 247 0 min 6,5 C 8,6 C 0,0 km/h (0 Bft)
16.10.2017 00:20 8,7 C 15,0 C 9,7 C 8,8 C 8,8 C 0,1 C 86 % 82 % 0 % 1022,9 hPa 0,0 l/m 0,0 km/h (0 Bft) W-SW 247 0 min 6,5 C 8,8 C 0,0 km/h (0 Bft)
16.10.2017 00:25 8,7 C 14,9 C 9,6 C 8,8 C 8,8 C 0,1 C 86 % 82 % 0 % 1023,2 hPa 0,0 l/m 0,0 km/h (0 Bft) W-SW 247 0 min 6,5 C 8,8 C 0,0 km/h (0 Bft)
16.10.2017 00:30 8,7 C 14,9 C 9,6 C 8,7 C 8,7 C 0,0 C 86 % 82 % 0 % 1023,2 hPa 0,0 l/m 0,0 km/h (0 Bft) W-SW 247 0 min 6,5 C 8,7 C 0,0 km/h (0 Bft)
16.10.2017 00:35 8,5 C 14,9 C 9,6 C 8,6 C 8,6 C 0,1 C 86 % 82 % 0 % 1023,2 hPa 0,0 l/m 0,0 km/h (0 Bft) W-SW 247 0 min 6,3 C 8,6 C 0,0 km/h (0 Bft)
16.10.2017 00:40 8,5 C 14,9 C 9,6 C 8,6 C 8,6 C 0,1 C 86 % 82 % 0 % 1023,2 hPa 0,0 l/m 0,0 km/h (0 Bft) W-SW 247 0 min 6,3 C 8,6 C 0,0 km/h (0 Bft)
16.10.2017 00:45 8,5 C 14,9 C 9,6 C 8,6 C 8,6 C 0,1 C 86 % 82 % 0 % 1022,9 hPa 0,0 l/m 0,0 km/h (0 Bft) W-SW 247 0 min 6,3 C 8,6 C 0,0 km/h (0 Bft)
16.10.2017 00:50 8,4 C 14,9 C 9,6 C 8,6 C 8,6 C 0,2 C 86 % 82 % 0 % 1022,9 hPa 0,0 l/m 0,0 km/h (0 Bft) W-SW 247 0 min 6,2 C 8,6 C 0,0 km/h (0 Bft)
16.10.2017 00:55 8,4 C 14,8 C 9,5 C 8,5 C 8,5 C 0,1 C 86 % 82 % 0 % 1022,9 hPa 0,0 l/m 0,0 km/h (0 Bft) W-SW 247 0 min 6,2 C 8,5 C 0,0 km/h (0 Bft)
16.10.2017 01:00 8,3 C 14,8 C 9,5 C 8,5 C 8,5 C 0,2 C 86 % 82 % 0 % 1022,9 hPa 0,0 l/m 0,0 km/h (0 Bft) W-SW 247 0 min 6,1 C 8,5 C 0,0 km/h (0 Bft)
16.10.2017 01:05 8,3 C 14,8 C 9,4 C 8,4 C 8,4 C 0,1 C 86 % 82 % 0 % 1023,6 hPa 0,0 l/m 0,0 km/h (0 Bft) W-SW 247 0 min 6,1 C 8,4 C 0,0 km/h (0 Bft)
16.10.2017 01:10 8,3 C 14,8 C 9,5 C 8,3 C 8,3 C 0,0 C 86 % 82 % 0 % 1023,6 hPa 0,0 l/m 0,0 km/h (0 Bft) W-SW 247 0 min 6,1 C 8,3 C 0,0 km/h (0 Bft)
16.10.2017 01:15 8,1 C 14,8 C 9,3 C 8,2 C 8,2 C 0,1 C 86 % 81 % 0 % 1023,6 hPa 0,0 l/m 0,0 km/h (0 Bft) W-SW 247 0 min 5,9 C 8,2 C 0,0 km/h (0 Bft)
16.10.2017 01:20 8,1 C 14,8 C 9,3 C 8,2 C 8,2 C 0,1 C 86 % 81 % 0 % 1023,6 hPa 0,0 l/m 0,0 km/h (0 Bft) W-SW 247 0 min 5,9 C 8,2 C 0,0 km/h (0 Bft)
16.10.2017 01:25 8,0 C 14,8 C 9,2 C 8,1 C 8,1 C 0,1 C 86 % 81 % 0 % 1022,9 hPa 0,0 l/m 0,0 km/h (0 Bft) W-SW 247 0 min 5,8 C 8,1 C 0,0 km/h (0 Bft)
16.10.2017 01:30 8,0 C 14,7 C 9,3 C 8,1 C 8,1 C 0,1 C 86 % 81 % 0 % 1022,9 hPa 0,0 l/m 0,0 km/h (0 Bft) W-SW 247 0 min 5,8 C 8,1 C 0,0 km/h (0 Bft)
16.10.2017 01:35 7,9 C 14,7 C 9,1 C 8,0 C 8,0 C 0,1 C 86 % 81 % 0 % 1022,9 hPa 0,0 l/m 0,0 km/h (0 Bft) W-SW 247 0 min 5,7 C 8,0 C 0,0 km/h (0 Bft)
16.10.2017 01:40 7,9 C 14,7 C 9,1 C 8,0 C 8,0 C 0,1 C 86 % 81 % 0 % 1022,9 hPa 0,0 l/m 0,0 km/h (0 Bft) W-SW 247 0 min 5,7 C 8,0 C 0,0 km/h (0 Bft)
16.10.2017 01:45 7,7 C 14,7 C 9,0 C 7,9 C 7,9 C 0,2 C 86 % 81 % 0 % 1022,8 hPa 0,0 l/m 0,0 km/h (0 Bft) W-SW 247 0 min 5,5 C 7,9 C 0,0 km/h (0 Bft)
16.10.2017 01:50 7,7 C 14,7 C 8,9 C 7,9 C 7,9 C 0,2 C 86 % 81 % 0 % 1022,8 hPa 0,0 l/m 0,0 km/h (0 Bft) W-SW 247 0 min 5,5 C 7,9 C 0,0 km/h (0 Bft)
16.10.2017 01:55 7,7 C 14,7 C 8,9 C 7,9 C 7,9 C 0,2 C 86 % 81 % 0 % 1022,8 hPa 0,0 l/m 0,0 km/h (0 Bft) W-SW 247 0 min 5,5 C 7,9 C 0,0 km/h (0 Bft)
16.10.2017 02:00 7,6 C 14,6 C 9,0 C 7,9 C 7,9 C 0,3 C 86 % 81 % 0 % 1022,8 hPa 0,0 l/m 0,0 km/h (0 Bft) W-SW 247 0 min 5,4 C 7,9 C 0,0 km/h (0 Bft)
16.10.2017 02:05 7,5 C 14,6 C 8,9 C 7,8 C 7,8 C 0,3 C 86 % 81 % 0 % 1022,8 hPa 0,0 l/m 0,0 km/h (0 Bft) W-SW 247 0 min 5,3 C 7,8 C 0,0 km/h (0 Bft)
16.10.2017 02:10 7,5 C 14,6 C 8,9 C 7,9 C 7,9 C 0,4 C 86 % 81 % 0 % 1022,8 hPa 0,0 l/m 0,0 km/h (0 Bft) W-SW 247 0 min 5,3 C 7,9 C 0,0 km/h (0 Bft)
16.10.2017 02:15 7,5 C 14,6 C 8,8 C 7,9 C 7,9 C 0,4 C 86 % 81 % 0 % 1022,8 hPa 0,0 l/m 0,0 km/h (0 Bft) W-SW 247 0 min 5,3 C 7,9 C 0,0 km/h (0 Bft)
16.10.2017 02:20 7,3 C 14,6 C 8,8 C 7,9 C 7,9 C 0,6 C 86 % 81 % 0 % 1022,8 hPa 0,0 l/m 0,0 km/h (0 Bft) W-SW 247 0 min 5,1 C 7,9 C 0,0 km/h (0 Bft)
16.10.2017 02:25 7,2 C 14,6 C 8,7 C 7,7 C 7,7 C 0,5 C 86 % 81 % 0 % 1022,9 hPa 0,0 l/m 0,0 km/h (0 Bft) W-SW 247 0 min 5,0 C 7,7 C 0,0 km/h (0 Bft)
16.10.2017 02:30 7,2 C 14,5 C 8,7 C 7,5 C 7,5 C 0,3 C 86 % 81 % 0 % 1022,9 hPa 0,0 l/m 0,0 km/h (0 Bft) W-SW 247 0 min 5,0 C 7,5 C 0,0 km/h (0 Bft)
16.10.2017 02:35 7,2 C 14,5 C 8,6 C 7,4 C 7,4 C 0,2 C 86 % 81 % 0 % 1022,9 hPa 0,0 l/m 0,0 km/h (0 Bft) W-SW 247 0 min 5,0 C 7,4 C 0,0 km/h (0 Bft)
16.10.2017 02:40 7,2 C 14,5 C 8,6 C 7,4 C 7,4 C 0,2 C 86 % 81 % 0 % 1022,9 hPa 0,0 l/m 0,0 km/h (0 Bft) W-SW 247 0 min 5,0 C 7,4 C 0,0 km/h (0 Bft)
16.10.2017 02:45 7,1 C 14,5 C 8,6 C 7,2 C 7,2 C 0,1 C 86 % 81 % 0 % 1022,6 hPa 0,0 l/m 0,0 km/h (0 Bft) W-SW 247 0 min 4,9 C 7,2 C 0,0 km/h (0 Bft)
16.10.2017 02:50 7,1 C 14,5 C 8,5 C 7,1 C 7,1 C 0,0 C 86 % 81 % 0 % 1022,6 hPa 0,0 l/m 0,0 km/h (0 Bft) W-SW 247 0 min 4,9 C 7,1 C 0,0 km/h (0 Bft)
16.10.2017 02:55 7,0 C 14,5 C 8,4 C 7,0 C 7,0 C 0,0 C 86 % 81 % 0 % 1022,6 hPa 0,0 l/m 0,0 km/h (0 Bft) W-SW 247 0 min 4,8 C 7,0 C 0,0 km/h (0 Bft)
16.10.2017 03:00 6,9 C 14,5 C 8,4 C 7,0 C 7,0 C 0,1 C 86 % 81 % 0 % 1022,6 hPa 0,0 l/m 0,0 km/h (0 Bft) W-SW 247 0 min 4,7 C 7,0 C 0,0 km/h (0 Bft)
16.10.2017 03:05 6,8 C 14,5 C 8,3 C 7,0 C 7,0 C 0,2 C 86 % 81 % 0 % 1022,7 hPa 0,0 l/m 0,0 km/h (0 Bft) W-SW 247 0 min 4,6 C 7,0 C 0,0 km/h (0 Bft)
16.10.2017 03:10 6,8 C 14,5 C 8,3 C 7,0 C 7,0 C 0,2 C 86 % 81 % 0 % 1022,7 hPa 0,0 l/m 0,0 km/h (0 Bft) W-SW 247 0 min 4,6 C 7,0 C 0,0 km/h (0 Bft)
16.10.2017 03:15 6,7 C 14,5 C 8,2 C 7,0 C 7,0 C 0,3 C 86 % 81 % 0 % 1022,7 hPa 0,0 l/m 0,0 km/h (0 Bft) W-SW 247 0 min 4,5 C 7,0 C 0,0 km/h (0 Bft)
16.10.2017 03:20 6,6 C 14,5 C 8,2 C 7,0 C 7,0 C 0,4 C 86 % 81 % 0 % 1022,7 hPa 0,0 l/m 0,0 km/h (0 Bft) W-SW 247 0 min 4,4 C 7,0 C 0,0 km/h (0 Bft)
16.10.2017 03:25 6,5 C 14,5 C 8,1 C 6,9 C 6,9 C 0,4 C 86 % 81 % 0 % 1022,6 hPa 0,0 l/m 0,0 km/h (0 Bft) W-SW 247 0 min 4,3 C 6,9 C 0,0 km/h (0 Bft)
16.10.2017 03:30 6,5 C 14,5 C 8,1 C 6,9 C 6,9 C 0,4 C 86 % 81 % 0 % 1022,6 hPa 0,0 l/m 0,0 km/h (0 Bft) W-SW 247 0 min 4,3 C 6,9 C 0,0 km/h (0 Bft)
16.10.2017 03:35 6,4 C 14,3 C 8,1 C 7,0 C 7,0 C 0,6 C 87 % 81 % 0 % 1022,6 hPa 0,0 l/m 0,0 km/h (0 Bft) W-SW 247 0 min 4,4 C 7,0 C 0,0 km/h (0 Bft)
16.10.2017 03:40 6,4 C 14,3 C 8,0 C 7,0 C 7,0 C 0,6 C 87 % 81 % 0 % 1022,6 hPa 0,0 l/m 0,0 km/h (0 Bft) W-SW 247 0 min 4,4 C 7,0 C 0,0 km/h (0 Bft)
16.10.2017 03:45 6,4 C 14,3 C 8,0 C 7,0 C 7,0 C 0,6 C 87 % 81 % 0 % 1022,8 hPa 0,0 l/m 0,0 km/h (0 Bft) W-SW 247 0 min 4,4 C 7,0 C 0,0 km/h (0 Bft)
16.10.2017 03:50 6,4 C 14,3 C 8,0 C 7,0 C 7,0 C 0,6 C 86 % 81 % 0 % 1022,8 hPa 0,0 l/m 0,0 km/h (0 Bft) W-SW 247 0 min 4,2 C 7,0 C 0,0 km/h (0 Bft)
16.10.2017 03:55 6,3 C 14,3 C 8,0 C 7,0 C 7,0 C 0,7 C 87 % 81 % 0 % 1022,8 hPa 0,0 l/m 0,0 km/h (0 Bft) W-SW 247 0 min 4,3 C 7,0 C 0,0 km/h (0 Bft)
16.10.2017 04:00 6,3 C 14,3 C 8,1 C 7,0 C 7,0 C 0,7 C 87 % 80 % 0 % 1022,8 hPa 0,0 l/m 0,0 km/h (0 Bft) W-SW 247 0 min 4,3 C 7,0 C 0,0 km/h (0 Bft)
16.10.2017 04:05 6,3 C 14,2 C 8,0 C 7,2 C 7,2 C 0,9 C 87 % 80 % 0 % 1022,8 hPa 0,0 l/m 0,0 km/h (0 Bft) W-SW 247 0 min 4,3 C 7,2 C 0,0 km/h (0 Bft)
16.10.2017 04:10 6,3 C 14,2 C 8,0 C 7,2 C 7,2 C 0,9 C 87 % 80 % 0 % 1022,8 hPa 0,0 l/m 0,0 km/h (0 Bft) W-SW 247 0 min 4,3 C 7,2 C 0,0 km/h (0 Bft)
16.10.2017 04:15 6,3 C 14,2 C 8,0 C 7,2 C 7,2 C 0,9 C 87 % 80 % 0 % 1022,8 hPa 0,0 l/m 0,0 km/h (0 Bft) W-SW 247 0 min 4,3 C 7,2 C 0,0 km/h (0 Bft)
16.10.2017 04:20 6,3 C 14,2 C 8,0 C 7,1 C 7,1 C 0,8 C 87 % 80 % 0 % 1022,8 hPa 0,0 l/m 0,0 km/h (0 Bft) W-SW 247 0 min 4,3 C 7,1 C 0,0 km/h (0 Bft)
16.10.2017 04:25 6,3 C 14,2 C 7,9 C 7,0 C 7,0 C 0,7 C 87 % 80 % 0 % 1022,8 hPa 0,0 l/m 0,0 km/h (0 Bft) W-SW 247 0 min 4,3 C 7,0 C 0,0 km/h (0 Bft)
16.10.2017 04:30 6,3 C 14,2 C 7,9 C 7,0 C 7,0 C 0,7 C 87 % 80 % 0 % 1022,8 hPa 0,0 l/m 0,0 km/h (0 Bft) W-SW 247 0 min 4,3 C 7,0 C 0,0 km/h (0 Bft)
16.10.2017 04:35 6,2 C 14,1 C 7,9 C 7,0 C 7,0 C 0,8 C 87 % 80 % 0 % 1022,8 hPa 0,0 l/m 0,0 km/h (0 Bft) W-SW 247 0 min 4,2 C 7,0 C 0,0 km/h (0 Bft)
16.10.2017 04:40 6,2 C 14,1 C 7,8 C 7,0 C 7,0 C 0,8 C 87 % 80 % 0 % 1022,8 hPa 0,0 l/m 0,0 km/h (0 Bft) W-SW 247 0 min 4,2 C 7,0 C 0,0 km/h (0 Bft)
16.10.2017 04:45 6,2 C 14,1 C 8,0 C 6,9 C 6,9 C 0,7 C 87 % 80 % 0 % 1022,6 hPa 0,0 l/m 0,0 km/h (0 Bft) W-SW 247 0 min 4,2 C 6,9 C 0,0 km/h (0 Bft)
16.10.2017 04:50 6,3 C 14,1 C 7,9 C 7,0 C 7,0 C 0,7 C 87 % 80 % 0 % 1022,6 hPa 0,0 l/m 0,0 km/h (0 Bft) W-SW 247 0 min 4,3 C 7,0 C 0,0 km/h (0 Bft)
16.10.2017 04:55 6,1 C 14,1 C 7,8 C 7,0 C 7,0 C 0,9 C 87 % 80 % 0 % 1022,6 hPa 0,0 l/m 0,0 km/h (0 Bft) W-SW 247 0 min 4,1 C 7,0 C 0,0 km/h (0 Bft)
16.10.2017 05:00 6,2 C 14,1 C 7,8 C 7,2 C 7,2 C 1,0 C 87 % 80 % 0 % 1022,6 hPa 0,0 l/m 0,0 km/h (0 Bft) W-SW 247 0 min 4,2 C 7,2 C 0,0 km/h (0 Bft)
16.10.2017 05:05 6,2 C 14,1 C 7,9 C 7,2 C 7,2 C 1,0 C 87 % 80 % 0 % 1022,7 hPa 0,0 l/m 0,0 km/h (0 Bft) W-SW 247 0 min 4,2 C 7,2 C 0,0 km/h (0 Bft)
16.10.2017 05:10 6,1 C 14,0 C 7,9 C 7,1 C 7,1 C 1,0 C 87 % 80 % 0 % 1022,7 hPa 0,0 l/m 0,0 km/h (0 Bft) W-SW 247 0 min 4,1 C 7,1 C 0,0 km/h (0 Bft)
16.10.2017 05:15 6,2 C 14,0 C 7,9 C 7,2 C 7,2 C 1,0 C 87 % 80 % 0 % 1022,7 hPa 0,0 l/m 0,0 km/h (0 Bft) W-SW 247 0 min 4,2 C 7,2 C 0,0 km/h (0 Bft)
16.10.2017 05:20 6,3 C 14,0 C 8,0 C 7,4 C 7,4 C 1,1 C 87 % 80 % 0 % 1022,7 hPa 0,0 l/m 0,0 km/h (0 Bft) W-SW 247 0 min 4,3 C 7,4 C 0,0 km/h (0 Bft)
16.10.2017 05:25 6,3 C 14,0 C 8,0 C 7,2 C 7,2 C 0,9 C 87 % 80 % 0 % 1022,6 hPa 0,0 l/m 0,0 km/h (0 Bft) W-SW 247 0 min 4,3 C 7,2 C 0,0 km/h (0 Bft)
16.10.2017 05:30 6,3 C 14,0 C 7,9 C 7,0 C 7,0 C 0,7 C 87 % 80 % 0 % 1022,6 hPa 0,0 l/m 0,0 km/h (0 Bft) W-SW 247 0 min 4,3 C 7,0 C 0,0 km/h (0 Bft)
16.10.2017 05:35 6,2 C 14,0 C 7,9 C 7,0 C 7,0 C 0,8 C 87 % 80 % 0 % 1022,6 hPa 0,0 l/m 0,0 km/h (0 Bft) W-SW 247 0 min 4,2 C 7,0 C 0,0 km/h (0 Bft)
16.10.2017 05:40 6,1 C 14,0 C 7,9 C 7,0 C 7,0 C 0,9 C 87 % 80 % 0 % 1022,6 hPa 0,0 l/m 0,0 km/h (0 Bft) W-SW 247 0 min 4,1 C 7,0 C 0,0 km/h (0 Bft)
16.10.2017 05:45 6,1 C 14,0 C 7,9 C 7,0 C 7,0 C 0,9 C 87 % 80 % 0 % 1022,9 hPa 0,0 l/m 0,0 km/h (0 Bft) W-SW 247 0 min 4,1 C 7,0 C 0,0 km/h (0 Bft)
16.10.2017 05:50 6,1 C 13,9 C 7,8 C 7,1 C 7,1 C 1,0 C 87 % 80 % 0 % 1022,9 hPa 0,0 l/m 0,0 km/h (0 Bft) W-SW 247 0 min 4,1 C 7,1 C 0,0 km/h (0 Bft)
16.10.2017 05:55 6,2 C 13,9 C 7,8 C 7,1 C 7,1 C 0,9 C 87 % 80 % 0 % 1022,9 hPa 0,0 l/m 0,0 km/h (0 Bft) W-SW 247 0 min 4,2 C 7,1 C 0,0 km/h (0 Bft)
16.10.2017 06:00 6,2 C 13,9 C 7,9 C 7,2 C 7,2 C 1,0 C 87 % 80 % 0 % 1022,9 hPa 0,0 l/m 0,0 km/h (0 Bft) W-SW 247 0 min 4,2 C 7,2 C 0,0 km/h (0 Bft)
16.10.2017 06:05 6,1 C 13,9 C 7,7 C 7,0 C 7,0 C 0,9 C 87 % 80 % 0 % 1022,8 hPa 0,0 l/m 0,0 km/h (0 Bft) W-SW 247 0 min 4,1 C 7,0 C 0,0 km/h (0 Bft)
16.10.2017 06:10 6,0 C 13,9 C 7,7 C 6,7 C 6,7 C 0,7 C 87 % 80 % 0 % 1022,8 hPa 0,0 l/m 0,0 km/h (0 Bft) W-SW 247 0 min 4,0 C 6,7 C 0,0 km/h (0 Bft)
16.10.2017 06:15 6,0 C 13,9 C 7,7 C 6,7 C 6,7 C 0,7 C 87 % 80 % 0 % 1022,8 hPa 0,0 l/m 0,0 km/h (0 Bft) W-SW 247 0 min 4,0 C 6,7 C 0,0 km/h (0 Bft)
16.10.2017 06:20 5,9 C 13,9 C 7,6 C 6,7 C 6,7 C 0,8 C 87 % 80 % 0 % 1022,8 hPa 0,0 l/m 0,0 km/h (0 Bft) W-SW 247 0 min 3,9 C 6,7 C 0,0 km/h (0 Bft)
16.10.2017 06:25 5,9 C 13,8 C 7,6 C 6,7 C 6,7 C 0,8 C 87 % 80 % 0 % 1022,6 hPa 0,0 l/m 0,0 km/h (0 Bft) W-SW 247 0 min 3,9 C 6,7 C 0,0 km/h (0 Bft)
16.10.2017 06:30 5,9 C 13,8 C 7,7 C 6,7 C 6,7 C 0,8 C 87 % 80 % 0 % 1022,6 hPa 0,0 l/m 0,0 km/h (0 Bft) W-SW 247 0 min 3,9 C 6,7 C 0,0 km/h (0 Bft)
16.10.2017 06:35 5,9 C 13,8 C 7,6 C 6,7 C 6,7 C 0,8 C 87 % 80 % 0 % 1022,6 hPa 0,0 l/m 0,0 km/h (0 Bft) W-SW 247 0 min 3,9 C 6,7 C 0,0 km/h (0 Bft)
16.10.2017 06:40 5,9 C 13,8 C 7,6 C 6,7 C 6,7 C 0,8 C 87 % 80 % 0 % 1022,6 hPa 0,0 l/m 0,0 km/h (0 Bft) W-SW 247 0 min 3,9 C 6,7 C 0,0 km/h (0 Bft)
16.10.2017 06:45 5,9 C 13,8 C 7,6 C 6,6 C 6,6 C 0,7 C 87 % 80 % 0 % 1022,7 hPa 0,0 l/m 0,0 km/h (0 Bft) W-SW 247 0 min 3,9 C 6,6 C 0,0 km/h (0 Bft)
16.10.2017 06:50 5,9 C 13,8 C 7,7 C 6,6 C 6,6 C 0,7 C 87 % 80 % 0 % 1022,7 hPa 0,0 l/m 0,0 km/h (0 Bft) S 180 0 min 3,9 C 6,6 C 0,0 km/h (0 Bft)
16.10.2017 06:55 5,9 C 13,9 C 7,7 C 7,0 C 7,0 C 1,1 C 87 % 80 % 0 % 1022,7 hPa 0,0 l/m 0,2 km/h (0 Bft) S 180 0 min 3,9 C 7,0 C 0,0 km/h (0 Bft)
16.10.2017 07:00 6,0 C 13,8 C 7,7 C 7,2 C 7,2 C 1,2 C 87 % 80 % 0 % 1022,7 hPa 0,0 l/m 0,2 km/h (0 Bft) S-SW 202 0 min 4,0 C 7,2 C 0,0 km/h (0 Bft)
16.10.2017 07:05 5,9 C 13,8 C 7,7 C 7,0 C 7,0 C 1,1 C 87 % 80 % 0 % 1022,4 hPa 0,0 l/m 0,0 km/h (0 Bft) W-SW 247 0 min 3,9 C 7,0 C 0,0 km/h (0 Bft)
16.10.2017 07:10 5,9 C 13,8 C 7,5 C 6,8 C 6,8 C 0,9 C 87 % 80 % 0 % 1022,4 hPa 0,0 l/m 0,0 km/h (0 Bft) W-SW 247 0 min 3,9 C 6,8 C 0,0 km/h (0 Bft)
16.10.2017 07:15 5,9 C 13,8 C 7,5 C 7,0 C 7,0 C 1,1 C 87 % 80 % 0 % 1022,4 hPa 0,0 l/m 0,0 km/h (0 Bft) SW 225 0 min 3,9 C 7,0 C 0,0 km/h (0 Bft)
16.10.2017 07:20 5,9 C 13,8 C 7,6 C 6,9 C 6,9 C 1,0 C 87 % 80 % 0 % 1022,4 hPa 0,0 l/m 0,0 km/h (0 Bft) S-SW 202 0 min 3,9 C 6,9 C 0,0 km/h (0 Bft)
16.10.2017 07:25 5,9 C 13,8 C 7,5 C 7,0 C 7,0 C 1,1 C 87 % 80 % 0 % 1022,7 hPa 0,0 l/m 0,0 km/h (0 Bft) SW 225 0 min 3,9 C 7,0 C 0,0 km/h (0 Bft)
16.10.2017 07:30 5,9 C 13,8 C 7,7 C 7,0 C 7,0 C 1,1 C 87 % 80 % 0 % 1022,7 hPa 0,0 l/m 0,3 km/h (0 Bft) S 180 0 min 3,9 C 7,0 C 0,0 km/h (0 Bft)
16.10.2017 07:35 5,9 C 13,8 C 7,6 C 7,1 C 7,1 C 1,2 C 87 % 80 % 0 % 1022,7 hPa 0,0 l/m 0,3 km/h (0 Bft) S 180 0 min 3,9 C 7,1 C 2,3 km/h (1 Bft)
16.10.2017 07:40 5,9 C 13,8 C 7,6 C 7,2 C 7,2 C 1,3 C 87 % 80 % 0 % 1022,7 hPa 0,0 l/m 0,0 km/h (0 Bft) S 180 0 min 3,9 C 7,2 C 0,0 km/h (0 Bft)
16.10.2017 07:45 5,9 C 13,8 C 7,6 C 7,0 C 7,0 C 1,1 C 87 % 80 % 29 % 1022,9 hPa 0,0 l/m 0,0 km/h (0 Bft) W-SW 247 5 min 3,9 C 7,0 C 0,0 km/h (0 Bft)
16.10.2017 07:50 5,9 C 13,7 C 7,6 C 7,0 C 7,0 C 1,1 C 87 % 80 % 29 % 1022,9 hPa 0,0 l/m 0,0 km/h (0 Bft) W-SW 247 5 min 3,9 C 7,0 C 0,0 km/h (0 Bft)
16.10.2017 07:55 5,7 C 13,7 C 7,7 C 7,0 C 7,0 C 1,3 C 87 % 80 % 34 % 1022,9 hPa 0,0 l/m 0,0 km/h (0 Bft) W-SW 247 5 min 3,7 C 7,0 C 0,0 km/h (0 Bft)
16.10.2017 08:00 5,8 C 13,7 C 7,7 C 7,1 C 7,1 C 1,3 C 87 % 80 % 34 % 1022,9 hPa 0,0 l/m 0,0 km/h (0 Bft) S 180 5 min 3,8 C 7,1 C 0,0 km/h (0 Bft)
16.10.2017 08:05 6,0 C 13,7 C 7,8 C 7,8 C 7,8 C 1,8 C 87 % 79 % 47 % 1022,8 hPa 0,0 l/m 0,0 km/h (0 Bft) S 180 5 min 4,0 C 7,8 C 0,0 km/h (0 Bft)
16.10.2017 08:10 6,2 C 13,6 C 8,0 C 8,4 C 8,4 C 2,2 C 87 % 79 % 58 % 1022,8 hPa 0,0 l/m 0,0 km/h (0 Bft) S 180 5 min 4,2 C 8,4 C 0,0 km/h (0 Bft)
16.10.2017 08:15 6,8 C 13,6 C 8,5 C 9,3 C 9,3 C 2,5 C 88 % 78 % 66 % 1022,8 hPa 0,0 l/m 0,3 km/h (0 Bft) S 180 5 min 5,0 C 9,3 C 0,0 km/h (0 Bft)
16.10.2017 08:20 7,1 C 13,6 C 8,6 C 9,6 C 9,6 C 2,5 C 88 % 77 % 66 % 1022,8 hPa 0,0 l/m 0,3 km/h (0 Bft) S 180 5 min 5,2 C 9,6 C 0,0 km/h (0 Bft)
16.10.2017 08:25 7,2 C 13,6 C 8,5 C 9,8 C 9,8 C 2,6 C 88 % 78 % 68 % 1022,9 hPa 0,0 l/m 0,0 km/h (0 Bft) S 180 5 min 5,3 C 9,8 C 0,0 km/h (0 Bft)
16.10.2017 08:30 7,3 C 13,6 C 8,7 C 9,9 C 9,9 C 2,6 C 88 % 78 % 68 % 1022,9 hPa 0,0 l/m 0,0 km/h (0 Bft) S 180 5 min 5,4 C 9,9 C 0,0 km/h (0 Bft)
16.10.2017 08:35 7,5 C 13,6 C 9,1 C 10,3 C 10,3 C 2,8 C 88 % 77 % 74 % 1022,9 hPa 0,0 l/m 0,0 km/h (0 Bft) S 180 5 min 5,6 C 10,3 C 0,0 km/h (0 Bft)
16.10.2017 08:40 7,9 C 13,6 C 9,2 C 10,4 C 10,4 C 2,5 C 88 % 77 % 66 % 1022,9 hPa 0,0 l/m 0,0 km/h (0 Bft) S 180 5 min 6,0 C 10,4 C 0,0 km/h (0 Bft)
16.10.2017 08:45 8,5 C 13,6 C 9,6 C 11,0 C 11,0 C 2,5 C 88 % 76 % 66 % 1022,8 hPa 0,0 l/m 0,0 km/h (0 Bft) S-SO 157 5 min 6,6 C 11,0 C 0,0 km/h (0 Bft)
16.10.2017 08:50 8,6 C 13,7 C 9,7 C 11,1 C 11,1 C 2,5 C 88 % 76 % 66 % 1022,8 hPa 0,0 l/m 0,0 km/h (0 Bft) S-SO 157 5 min 6,7 C 11,1 C 0,0 km/h (0 Bft)
16.10.2017 08:55 9,3 C 13,6 C 10,7 C 11,6 C 11,6 C 2,3 C 88 % 74 % 61 % 1022,8 hPa 0,0 l/m 0,0 km/h (0 Bft) S-SO 157 5 min 7,4 C 11,6 C 0,0 km/h (0 Bft)
16.10.2017 09:00 9,7 C 13,7 C 11,1 C 11,8 C 11,8 C 2,1 C 88 % 73 % 55 % 1022,8 hPa 0,0 l/m 0,0 km/h (0 Bft) S-SO 157 5 min 7,8 C 11,8 C 0,0 km/h (0 Bft)
16.10.2017 09:05 10,1 C 13,5 C 11,3 C 12,0 C 12,0 C 1,9 C 88 % 72 % 50 % 1022,8 hPa 0,0 l/m 0,0 km/h (0 Bft) S-SO 157 0 min 8,2 C 12,0 C 0,0 km/h (0 Bft)
16.10.2017 09:10 10,2 C 13,5 C 11,6 C 12,1 C 12,1 C 1,9 C 88 % 72 % 50 % 1022,8 hPa 0,0 l/m 0,0 km/h (0 Bft) S-SO 157 0 min 8,3 C 12,1 C 0,0 km/h (0 Bft)
16.10.2017 09:15 10,4 C 13,5 C 11,9 C 12,3 C 12,3 C 1,9 C 88 % 72 % 50 % 1022,8 hPa 0,0 l/m 0,0 km/h (0 Bft) SW 225 0 min 8,5 C 12,3 C 0,0 km/h (0 Bft)
16.10.2017 09:20 10,4 C 13,7 C 12,1 C 12,4 C 12,4 C 2,0 C 88 % 72 % 53 % 1022,8 hPa 0,0 l/m 0,0 km/h (0 Bft) W 270 0 min 8,5 C 12,4 C 0,0 km/h (0 Bft)
16.10.2017 09:25 10,7 C 13,5 C 12,3 C 12,5 C 12,5 C 1,8 C 88 % 72 % 47 % 1022,7 hPa 0,0 l/m 0,0 km/h (0 Bft) SO 135 0 min 8,8 C 12,5 C 0,0 km/h (0 Bft)
16.10.2017 09:30 10,7 C 13,5 C 12,5 C 12,9 C 12,9 C 2,2 C 88 % 72 % 58 % 1022,7 hPa 0,0 l/m 0,0 km/h (0 Bft) W 270 0 min 8,8 C 12,9 C 0,0 km/h (0 Bft)
16.10.2017 09:35 11,0 C 13,6 C 12,8 C 13,1 C 13,1 C 2,1 C 88 % 73 % 55 % 1022,7 hPa 0,0 l/m 0,0 km/h (0 Bft) W 270 0 min 9,1 C 13,1 C 0,0 km/h (0 Bft)
16.10.2017 09:40 11,2 C 13,6 C 12,9 C 13,1 C 13,1 C 1,9 C 88 % 73 % 50 % 1022,7 hPa 0,0 l/m 0,0 km/h (0 Bft) SW 225 0 min 9,3 C 13,1 C 0,0 km/h (0 Bft)
16.10.2017 09:45 11,5 C 13,6 C 13,3 C 13,3 C 13,3 C 1,8 C 88 % 73 % 47 % 1022,9 hPa 0,0 l/m 0,2 km/h (0 Bft) NW 315 0 min 9,6 C 13,3 C 2,4 km/h (1 Bft)
16.10.2017 09:50 11,6 C 13,6 C 13,6 C 13,4 C 13,4 C 1,8 C 88 % 73 % 47 % 1022,9 hPa 0,0 l/m 0,2 km/h (0 Bft) W-SW 247 0 min 9,7 C 13,4 C 0,0 km/h (0 Bft)
16.10.2017 09:55 11,9 C 13,6 C 13,6 C 13,6 C 13,6 C 1,7 C 88 % 74 % 45 % 1022,9 hPa 0,0 l/m 0,2 km/h (0 Bft) W-SW 247 0 min 10,0 C 13,6 C 0,0 km/h (0 Bft)
16.10.2017 10:00 12,0 C 13,6 C 13,7 C 13,7 C 13,7 C 1,7 C 88 % 74 % 45 % 1022,9 hPa 0,0 l/m 0,2 km/h (0 Bft) SW 225 0 min 10,1 C 13,7 C 2,6 km/h (1 Bft)
16.10.2017 10:05 12,3 C 13,5 C 14,3 C 14,0 C 14,0 C 1,7 C 88 % 74 % 45 % 1023,0 hPa 0,0 l/m 0,3 km/h (0 Bft) SW 225 0 min 10,4 C 14,0 C 3,7 km/h (1 Bft)
16.10.2017 10:10 12,3 C 13,6 C 14,4 C 14,1 C 14,1 C 1,8 C 88 % 75 % 47 % 1023,0 hPa 0,0 l/m 0,3 km/h (0 Bft) W 270 0 min 10,4 C 14,1 C 3,2 km/h (1 Bft)
16.10.2017 10:15 12,7 C 13,3 C 14,6 C 14,5 C 14,5 C 1,8 C 88 % 75 % 47 % 1023,0 hPa 0,0 l/m 0,8 km/h (0 Bft) SO 135 0 min 10,8 C 14,5 C 11,7 km/h (2 Bft)
16.10.2017 10:20 12,9 C 13,3 C 14,9 C 14,9 C 14,9 C 2,0 C 88 % 75 % 53 % 1023,0 hPa 0,0 l/m 1,3 km/h (1 Bft) SO 135 0 min 11,0 C 14,9 C 0,0 km/h (0 Bft)
16.10.2017 10:25 13,3 C 13,2 C 15,4 C 15,1 C 15,1 C 1,8 C 88 % 76 % 47 % 1023,1 hPa 0,0 l/m 1,4 km/h (1 Bft) NO 45 0 min 11,4 C 15,1 C 0,0 km/h (0 Bft)
16.10.2017 10:30 13,5 C 13,2 C 15,5 C 15,3 C 15,3 C 1,8 C 88 % 77 % 47 % 1023,1 hPa 0,0 l/m 1,1 km/h (1 Bft) W-NW 292 0 min 11,6 C 15,3 C 0,0 km/h (0 Bft)
16.10.2017 10:35 14,1 C 13,3 C 15,6 C 16,5 C 16,5 C 2,4 C 88 % 78 % 63 % 1023,1 hPa 0,0 l/m 1,4 km/h (1 Bft) S-SW 202 0 min 12,1 C 16,5 C 5,1 km/h (1 Bft)
16.10.2017 10:40 14,3 C 13,3 C 15,6 C 17,5 C 17,5 C 3,2 C 88 % 78 % 84 % 1023,1 hPa 0,0 l/m 1,8 km/h (1 Bft) SW 225 0 min 12,3 C 17,5 C 2,9 km/h (1 Bft)
16.10.2017 10:45 14,9 C 13,3 C 15,9 C 18,0 C 18,0 C 3,1 C 87 % 79 % 82 % 1023,4 hPa 0,0 l/m 2,1 km/h (1 Bft) SW 225 0 min 12,8 C 18,0 C 3,5 km/h (1 Bft)
16.10.2017 10:50 15,1 C 13,3 C 15,9 C 17,7 C 17,7 C 2,6 C 87 % 80 % 68 % 1023,4 hPa 0,0 l/m 2,1 km/h (1 Bft) S 180 0 min 13,0 C 17,7 C 2,4 km/h (1 Bft)
16.10.2017 10:55 15,5 C 13,3 C 16,1 C 17,5 C 17,5 C 2,0 C 86 % 80 % 53 % 1023,4 hPa 0,0 l/m 2,1 km/h (1 Bft) W-SW 247 0 min 13,2 C 17,5 C 3,9 km/h (1 Bft)
16.10.2017 11:00 15,9 C 13,3 C 16,1 C 17,8 C 17,8 C 1,9 C 85 % 81 % 50 % 1023,4 hPa 0,0 l/m 2,1 km/h (1 Bft) W-SW 247 0 min 13,4 C 17,8 C 3,5 km/h (1 Bft)
16.10.2017 11:05 17,1 C 13,3 C 16,3 C 18,4 C 18,4 C 1,3 C 84 % 81 % 34 % 1023,4 hPa 0,0 l/m 2,6 km/h (1 Bft) W-SW 247 0 min 14,4 C 18,4 C 4,2 km/h (1 Bft)
16.10.2017 11:10 17,5 C 13,4 C 16,4 C 18,7 C 18,7 C 1,2 C 83 % 82 % 32 % 1023,4 hPa 0,0 l/m 2,9 km/h (1 Bft) W-SW 247 0 min 14,6 C 18,7 C 4,2 km/h (1 Bft)
16.10.2017 11:15 17,9 C 13,4 C 16,5 C 19,2 C 19,2 C 1,3 C 81 % 82 % 34 % 1023,4 hPa 0,0 l/m 3,1 km/h (1 Bft) W 270 0 min 14,6 C 19,2 C 3,5 km/h (1 Bft)
16.10.2017 11:20 18,0 C 13,4 C 16,7 C 19,1 C 19,1 C 1,1 C 79 % 82 % 29 % 1023,4 hPa 0,0 l/m 3,4 km/h (1 Bft) W-SW 247 0 min 14,3 C 19,1 C 7,2 km/h (2 Bft)
16.10.2017 11:25 18,3 C 13,4 C 16,8 C 19,2 C 19,2 C 0,9 C 77 % 82 % 24 % 1023,8 hPa 0,0 l/m 4,7 km/h (1 Bft) NW 315 0 min 14,2 C 19,2 C 12,7 km/h (3 Bft)
16.10.2017 11:30 18,4 C 13,4 C 17,1 C 19,1 C 19,1 C 0,7 C 77 % 82 % 18 % 1023,8 hPa 0,0 l/m 4,7 km/h (1 Bft) S 180 0 min 14,3 C 19,1 C 5,0 km/h (1 Bft)
16.10.2017 11:35 18,5 C 13,5 C 17,2 C 19,2 C 19,2 C 0,7 C 76 % 82 % 18 % 1023,8 hPa 0,0 l/m 3,9 km/h (1 Bft) SW 225 0 min 14,2 C 19,2 C 10,1 km/h (2 Bft)
16.10.2017 11:40 18,5 C 13,5 C 17,3 C 19,4 C 19,4 C 0,9 C 76 % 82 % 24 % 1023,8 hPa 0,0 l/m 3,9 km/h (1 Bft) W-SW 247 0 min 14,2 C 19,4 C 4,8 km/h (1 Bft)
16.10.2017 11:45 18,6 C 13,5 C 17,4 C 20,4 C 20,4 C 1,8 C 75 % 82 % 47 % 1023,5 hPa 0,0 l/m 4,3 km/h (1 Bft) W 270 0 min 14,1 C 20,4 C 3,9 km/h (1 Bft)
16.10.2017 11:50 18,7 C 13,5 C 17,5 C 20,9 C 20,9 C 2,2 C 75 % 82 % 58 % 1023,5 hPa 0,0 l/m 3,5 km/h (1 Bft) SW 225 0 min 14,2 C 20,9 C 2,6 km/h (1 Bft)
16.10.2017 11:55 18,8 C 13,5 C 17,7 C 21,5 C 21,5 C 2,7 C 75 % 81 % 71 % 1023,5 hPa 0,0 l/m 2,3 km/h (1 Bft) SW 225 0 min 14,3 C 21,5 C 1,6 km/h (1 Bft)
16.10.2017 12:00 19,0 C 13,6 C 17,7 C 21,4 C 21,4 C 2,4 C 74 % 81 % 63 % 1023,5 hPa 0,0 l/m 2,4 km/h (1 Bft) W-SW 247 0 min 14,3 C 21,4 C 3,9 km/h (1 Bft)
16.10.2017 12:05 19,1 C 13,6 C 17,9 C 21,3 C 21,3 C 2,2 C 73 % 81 % 58 % 1023,6 hPa 0,0 l/m 3,4 km/h (1 Bft) S-SW 202 0 min 14,1 C 21,3 C 4,5 km/h (1 Bft)
16.10.2017 12:10 19,2 C 13,6 C 18,0 C 21,4 C 21,4 C 2,2 C 72 % 80 % 58 % 1023,6 hPa 0,0 l/m 3,9 km/h (1 Bft) SW 225 0 min 14,0 C 21,4 C 12,6 km/h (3 Bft)
16.10.2017 12:15 19,4 C 13,5 C 18,2 C 21,7 C 21,7 C 2,3 C 71 % 79 % 61 % 1023,6 hPa 0,0 l/m 4,3 km/h (1 Bft) W-SW 247 0 min 14,0 C 21,7 C 5,8 km/h (2 Bft)
16.10.2017 12:20 19,5 C 13,6 C 18,3 C 22,2 C 22,2 C 2,7 C 71 % 79 % 71 % 1023,6 hPa 0,0 l/m 4,3 km/h (1 Bft) S 180 0 min 14,1 C 22,2 C 5,3 km/h (1 Bft)
16.10.2017 12:25 19,7 C 13,6 C 18,3 C 22,5 C 22,5 C 2,8 C 72 % 79 % 74 % 1023,4 hPa 0,0 l/m 2,6 km/h (1 Bft) W 270 0 min 14,5 C 22,5 C 13,0 km/h (3 Bft)
16.10.2017 12:30 19,7 C 13,6 C 18,5 C 22,8 C 22,8 C 3,1 C 72 % 80 % 82 % 1023,4 hPa 0,0 l/m 2,1 km/h (1 Bft) O-SO 112 0 min 14,5 C 22,8 C 3,9 km/h (1 Bft)
16.10.2017 12:35 19,7 C 13,6 C 18,6 C 23,4 C 23,4 C 3,7 C 71 % 79 % 97 % 1023,4 hPa 0,0 l/m 2,4 km/h (1 Bft) S 180 5 min 14,3 C 23,4 C 2,3 km/h (1 Bft)
16.10.2017 12:40 19,9 C 13,7 C 18,7 C 24,0 C 24,0 C 4,1 C 71 % 78 % 100 % 1023,4 hPa 0,0 l/m 2,7 km/h (1 Bft) SW 225 5 min 14,5 C 24,0 C 2,3 km/h (1 Bft)
16.10.2017 12:45 19,9 C 13,7 C 18,8 C 25,0 C 25,0 C 5,1 C 70 % 78 % 100 % 1023,4 hPa 0,0 l/m 2,9 km/h (1 Bft) W-SW 247 5 min 14,3 C 25,0 C 6,3 km/h (2 Bft)
16.10.2017 12:50 20,0 C 13,7 C 18,9 C 25,6 C 25,6 C 5,6 C 71 % 78 % 100 % 1023,4 hPa 0,0 l/m 2,4 km/h (1 Bft) S 180 5 min 14,6 C 25,6 C 4,0 km/h (1 Bft)
16.10.2017 12:55 20,1 C 13,7 C 18,8 C 25,9 C 25,9 C 5,8 C 70 % 78 % 100 % 1023,4 hPa 0,0 l/m 2,1 km/h (1 Bft) W-SW 247 5 min 14,5 C 25,9 C 2,7 km/h (1 Bft)
16.10.2017 13:00 20,3 C 13,8 C 19,1 C 26,3 C 26,3 C 6,0 C 70 % 78 % 100 % 1023,4 hPa 0,0 l/m 2,3 km/h (1 Bft) O-NO 67 5 min 14,6 C 26,3 C 4,2 km/h (1 Bft)
16.10.2017 13:05 20,4 C 13,8 C 19,2 C 26,5 C 26,5 C 6,1 C 69 % 76 % 100 % 1023,2 hPa 0,0 l/m 2,4 km/h (1 Bft) SO 135 5 min 14,5 C 26,5 C 2,9 km/h (1 Bft)
16.10.2017 13:10 20,4 C 13,8 C 19,3 C 26,6 C 26,6 C 6,2 C 68 % 76 % 100 % 1023,2 hPa 0,0 l/m 2,7 km/h (1 Bft) S 180 5 min 14,3 C 26,6 C 6,3 km/h (2 Bft)
16.10.2017 13:15 20,7 C 13,8 C 19,3 C 26,6 C 26,6 C 5,9 C 67 % 76 % 100 % 1023,2 hPa 0,0 l/m 2,9 km/h (1 Bft) S-SW 202 5 min 14,3 C 26,6 C 1,9 km/h (1 Bft)
16.10.2017 13:20 20,7 C 13,9 C 19,4 C 26,7 C 26,7 C 6,0 C 68 % 76 % 100 % 1023,2 hPa 0,0 l/m 2,3 km/h (1 Bft) W-SW 247 5 min 14,6 C 26,7 C 4,5 km/h (1 Bft)
16.10.2017 13:25 20,8 C 13,9 C 19,6 C 27,1 C 27,1 C 6,3 C 67 % 76 % 100 % 1023,2 hPa 0,0 l/m 1,8 km/h (1 Bft) O 90 5 min 14,4 C 27,1 C 2,9 km/h (1 Bft)
16.10.2017 13:30 20,9 C 13,9 C 19,6 C 26,7 C 26,7 C 5,8 C 67 % 75 % 100 % 1023,2 hPa 0,0 l/m 1,8 km/h (1 Bft) SO 135 5 min 14,5 C 26,7 C 3,4 km/h (1 Bft)
16.10.2017 13:35 21,0 C 13,9 C 19,7 C 25,6 C 25,6 C 4,6 C 67 % 75 % 100 % 1023,2 hPa 0,0 l/m 1,8 km/h (1 Bft) S 180 5 min 14,6 C 25,6 C 3,1 km/h (1 Bft)
16.10.2017 13:40 21,1 C 14,0 C 19,7 C 25,4 C 25,4 C 4,3 C 67 % 75 % 100 % 1023,2 hPa 0,0 l/m 1,9 km/h (1 Bft) O-SO 112 5 min 14,7 C 25,4 C 5,0 km/h (1 Bft)
16.10.2017 13:45 21,2 C 14,0 C 20,0 C 24,8 C 24,8 C 3,6 C 67 % 75 % 95 % 1022,5 hPa 0,0 l/m 1,4 km/h (1 Bft) S-SW 202 5 min 14,8 C 24,8 C 3,9 km/h (1 Bft)
16.10.2017 13:50 21,3 C 14,0 C 20,1 C 24,8 C 24,8 C 3,5 C 66 % 75 % 92 % 1022,5 hPa 0,0 l/m 2,3 km/h (1 Bft) W-SW 247 5 min 14,7 C 24,8 C 4,5 km/h (1 Bft)
16.10.2017 13:55 21,5 C 14,0 C 20,2 C 24,2 C 24,2 C 2,7 C 65 % 74 % 71 % 1022,5 hPa 0,0 l/m 2,4 km/h (1 Bft) S-SO 157 0 min 14,6 C 24,2 C 2,4 km/h (1 Bft)
16.10.2017 14:00 21,5 C 14,1 C 20,4 C 24,5 C 24,5 C 3,0 C 65 % 74 % 79 % 1022,5 hPa 0,0 l/m 1,8 km/h (1 Bft) S-SW 202 0 min 14,6 C 24,5 C 0,0 km/h (0 Bft)
16.10.2017 14:05 21,6 C 14,1 C 20,4 C 25,3 C 25,3 C 3,7 C 65 % 74 % 97 % 1023,1 hPa 0,0 l/m 1,3 km/h (1 Bft) SW 225 5 min 14,7 C 25,3 C 2,1 km/h (1 Bft)
16.10.2017 14:10 21,8 C 14,1 C 20,5 C 25,9 C 25,9 C 4,1 C 64 % 74 % 100 % 1023,1 hPa 0,0 l/m 1,9 km/h (1 Bft) SW 225 5 min 14,7 C 25,9 C 2,3 km/h (1 Bft)
16.10.2017 14:15 21,9 C 14,2 C 20,7 C 26,1 C 26,1 C 4,2 C 64 % 74 % 100 % 1023,1 hPa 0,0 l/m 2,1 km/h (1 Bft) S 180 5 min 14,8 C 26,1 C 3,7 km/h (1 Bft)
16.10.2017 14:20 22,0 C 14,2 C 20,8 C 25,9 C 25,9 C 3,9 C 64 % 73 % 100 % 1023,1 hPa 0,0 l/m 1,9 km/h (1 Bft) SO 135 5 min 14,9 C 25,9 C 2,4 km/h (1 Bft)
16.10.2017 14:25 22,2 C 14,2 C 21,1 C 26,5 C 26,5 C 4,3 C 62 % 72 % 100 % 1023,2 hPa 0,0 l/m 2,6 km/h (1 Bft) W-SW 247 5 min 14,6 C 26,5 C 5,0 km/h (1 Bft)
16.10.2017 14:30 22,3 C 14,2 C 21,1 C 26,7 C 26,7 C 4,4 C 63 % 72 % 100 % 1023,2 hPa 0,0 l/m 2,6 km/h (1 Bft) W 270 5 min 14,9 C 26,7 C 2,9 km/h (1 Bft)
16.10.2017 14:35 22,4 C 14,3 C 21,2 C 27,2 C 27,2 C 4,8 C 62 % 71 % 100 % 1023,2 hPa 0,0 l/m 2,6 km/h (1 Bft) S 180 5 min 14,8 C 27,2 C 4,5 km/h (1 Bft)
16.10.2017 14:40 22,5 C 14,3 C 21,3 C 27,3 C 27,3 C 4,8 C 62 % 71 % 100 % 1023,2 hPa 0,0 l/m 2,4 km/h (1 Bft) SW 225 5 min 14,8 C 27,3 C 8,0 km/h (2 Bft)
16.10.2017 14:45 22,5 C 14,3 C 21,5 C 27,0 C 27,0 C 4,5 C 61 % 71 % 100 % 1022,9 hPa 0,0 l/m 3,2 km/h (1 Bft) W-SW 247 5 min 14,6 C 27,0 C 3,1 km/h (1 Bft)
16.10.2017 14:50 22,6 C 14,3 C 21,6 C 26,9 C 26,9 C 4,3 C 62 % 71 % 100 % 1022,9 hPa 0,0 l/m 2,9 km/h (1 Bft) W-SW 247 5 min 14,9 C 26,9 C 2,9 km/h (1 Bft)
16.10.2017 14:55 22,7 C 14,4 C 21,9 C 26,6 C 26,6 C 3,9 C 61 % 70 % 100 % 1022,9 hPa 0,0 l/m 2,4 km/h (1 Bft) W-SW 247 5 min 14,8 C 26,6 C 2,1 km/h (1 Bft)
16.10.2017 15:00 22,9 C 14,4 C 21,8 C 26,3 C 26,3 C 3,4 C 60 % 70 % 89 % 1022,9 hPa 0,0 l/m 2,7 km/h (1 Bft) W-SW 247 5 min 14,7 C 26,3 C 3,9 km/h (1 Bft)
16.10.2017 15:05 22,9 C 14,4 C 22,0 C 27,1 C 27,1 C 4,2 C 60 % 69 % 100 % 1022,8 hPa 0,0 l/m 2,4 km/h (1 Bft) SW 225 5 min 14,7 C 27,1 C 0,0 km/h (0 Bft)
16.10.2017 15:10 23,1 C 14,4 C 21,9 C 27,6 C 27,6 C 4,5 C 61 % 69 % 100 % 1022,8 hPa 0,0 l/m 1,8 km/h (1 Bft) W-SW 247 5 min 15,2 C 27,6 C 2,3 km/h (1 Bft)
16.10.2017 15:15 23,2 C 14,5 C 22,0 C 28,0 C 28,0 C 4,8 C 60 % 70 % 100 % 1022,8 hPa 0,0 l/m 1,6 km/h (1 Bft) W-SW 247 5 min 15,0 C 28,0 C 10,3 km/h (2 Bft)
16.10.2017 15:20 23,3 C 14,5 C 22,2 C 28,1 C 28,1 C 4,8 C 60 % 69 % 100 % 1022,8 hPa 0,0 l/m 2,3 km/h (1 Bft) S 180 5 min 15,1 C 28,1 C 2,3 km/h (1 Bft)
16.10.2017 15:25 23,3 C 14,5 C 22,2 C 28,3 C 28,3 C 5,0 C 60 % 68 % 100 % 1022,4 hPa 0,0 l/m 2,1 km/h (1 Bft) O-NO 67 5 min 15,1 C 28,3 C 0,0 km/h (0 Bft)
16.10.2017 15:30 23,4 C 14,5 C 22,3 C 28,4 C 28,4 C 5,0 C 60 % 68 % 100 % 1022,4 hPa 0,0 l/m 1,4 km/h (1 Bft) S 180 5 min 15,2 C 28,4 C 3,4 km/h (1 Bft)
16.10.2017 15:35 23,5 C 14,6 C 22,3 C 28,5 C 28,5 C 5,0 C 58 % 68 % 100 % 1022,4 hPa 0,0 l/m 1,6 km/h (1 Bft) S-SO 157 5 min 14,7 C 28,5 C 10,3 km/h (2 Bft)
16.10.2017 15:40 23,6 C 14,6 C 22,4 C 28,3 C 28,3 C 4,7 C 57 % 66 % 100 % 1022,4 hPa 0,0 l/m 2,4 km/h (1 Bft) W-SW 247 5 min 14,6 C 28,3 C 3,5 km/h (1 Bft)
16.10.2017 15:45 23,6 C 14,6 C 22,4 C 28,0 C 28,0 C 4,4 C 57 % 66 % 100 % 1022,1 hPa 0,0 l/m 2,7 km/h (1 Bft) S 180 5 min 14,6 C 28,0 C 5,3 km/h (1 Bft)
16.10.2017 15:50 23,6 C 14,6 C 22,4 C 27,9 C 27,9 C 4,3 C 56 % 66 % 100 % 1022,1 hPa 0,0 l/m 2,7 km/h (1 Bft) S-SW 202 5 min 14,3 C 27,9 C 5,3 km/h (1 Bft)
16.10.2017 15:55 23,7 C 14,7 C 22,4 C 27,9 C 27,9 C 4,2 C 57 % 66 % 100 % 1022,1 hPa 0,0 l/m 2,3 km/h (1 Bft) S-SW 202 5 min 14,7 C 27,9 C 2,3 km/h (1 Bft)
16.10.2017 16:00 23,7 C 14,7 C 22,4 C 27,7 C 27,7 C 4,0 C 56 % 66 % 100 % 1022,1 hPa 0,0 l/m 2,3 km/h (1 Bft) S 180 5 min 14,4 C 27,7 C 2,1 km/h (1 Bft)
16.10.2017 16:05 23,8 C 14,7 C 22,4 C 27,5 C 27,5 C 3,7 C 55 % 65 % 97 % 1022,4 hPa 0,0 l/m 2,4 km/h (1 Bft) SW 225 5 min 14,2 C 27,5 C 2,3 km/h (1 Bft)
16.10.2017 16:10 23,8 C 14,7 C 22,4 C 27,3 C 27,3 C 3,5 C 57 % 66 % 92 % 1022,4 hPa 0,0 l/m 1,9 km/h (1 Bft) W-SW 247 5 min 14,8 C 27,3 C 3,1 km/h (1 Bft)
16.10.2017 16:15 23,9 C 14,7 C 22,2 C 27,3 C 27,3 C 3,4 C 57 % 67 % 89 % 1022,4 hPa 0,0 l/m 1,0 km/h (0 Bft) SW 225 5 min 14,9 C 27,3 C 2,6 km/h (1 Bft)
16.10.2017 16:20 23,9 C 14,8 C 22,3 C 27,2 C 27,2 C 3,3 C 57 % 67 % 87 % 1022,4 hPa 0,0 l/m 1,1 km/h (1 Bft) W-SW 247 5 min 14,9 C 27,2 C 0,0 km/h (0 Bft)
16.10.2017 16:25 23,9 C 14,8 C 22,0 C 26,8 C 26,8 C 2,9 C 56 % 67 % 76 % 1022,4 hPa 0,0 l/m 1,6 km/h (1 Bft) S-SW 202 5 min 14,6 C 26,8 C 2,9 km/h (1 Bft)
16.10.2017 16:30 24,1 C 14,8 C 22,0 C 26,7 C 26,7 C 2,6 C 57 % 67 % 68 % 1022,4 hPa 0,0 l/m 1,3 km/h (1 Bft) S-SW 202 5 min 15,0 C 26,7 C 0,0 km/h (0 Bft)
16.10.2017 16:35 24,0 C 14,8 C 21,8 C 26,7 C 26,7 C 2,7 C 56 % 68 % 71 % 1022,4 hPa 0,0 l/m 0,3 km/h (0 Bft) S 180 5 min 14,7 C 26,7 C 0,0 km/h (0 Bft)
16.10.2017 16:40 24,1 C 14,8 C 21,7 C 26,6 C 26,6 C 2,5 C 57 % 68 % 66 % 1022,4 hPa 0,0 l/m 0,2 km/h (0 Bft) SW 225 5 min 15,0 C 26,6 C 0,0 km/h (0 Bft)
16.10.2017 16:45 24,1 C 14,9 C 21,6 C 26,3 C 26,3 C 2,2 C 57 % 68 % 58 % 1022,3 hPa 0,0 l/m 0,5 km/h (0 Bft) W-SW 247 5 min 15,0 C 26,3 C 2,1 km/h (1 Bft)
16.10.2017 16:50 24,1 C 14,9 C 21,5 C 25,9 C 25,9 C 1,8 C 57 % 68 % 47 % 1022,3 hPa 0,0 l/m 0,3 km/h (0 Bft) W-SW 247 0 min 15,0 C 25,9 C 0,0 km/h (0 Bft)
16.10.2017 16:55 24,0 C 14,9 C 21,4 C 25,3 C 25,3 C 1,3 C 56 % 68 % 34 % 1022,3 hPa 0,0 l/m 0,2 km/h (0 Bft) SW 225 0 min 14,7 C 25,3 C 2,3 km/h (1 Bft)
16.10.2017 17:00 23,9 C 14,9 C 21,2 C 24,7 C 24,7 C 0,8 C 57 % 69 % 21 % 1022,3 hPa 0,0 l/m 0,3 km/h (0 Bft) SW 225 0 min 14,9 C 24,7 C 0,0 km/h (0 Bft)
16.10.2017 17:05 23,7 C 14,9 C 21,1 C 23,9 C 23,9 C 0,2 C 57 % 70 % 5 % 1022,6 hPa 0,0 l/m 0,3 km/h (0 Bft) SW 225 0 min 14,7 C 23,9 C 0,0 km/h (0 Bft)
16.10.2017 17:10 23,6 C 14,9 C 20,9 C 23,6 C 23,6 C 0,0 C 58 % 70 % 0 % 1022,6 hPa 0,0 l/m 0,2 km/h (0 Bft) W-SW 247 0 min 14,8 C 23,6 C 0,0 km/h (0 Bft)
16.10.2017 17:15 23,4 C 15,0 C 20,7 C 23,3 C 23,1 C 0,0 C 58 % 71 % 0 % 1022,6 hPa 0,0 l/m 0,2 km/h (0 Bft) W-SW 247 0 min 14,7 C 23,1 C 1,8 km/h (1 Bft)
16.10.2017 17:20 23,5 C 15,0 C 20,6 C 23,2 C 22,7 C 0,0 C 59 % 71 % 0 % 1022,6 hPa 0,0 l/m 0,2 km/h (0 Bft) S 180 0 min 15,0 C 22,7 C 0,0 km/h (0 Bft)
16.10.2017 17:25 23,2 C 15,0 C 20,5 C 22,9 C 22,3 C 0,0 C 59 % 71 % 0 % 1022,4 hPa 0,0 l/m 0,0 km/h (0 Bft) W-SW 247 0 min 14,7 C 22,3 C 0,0 km/h (0 Bft)
16.10.2017 17:30 23,1 C 15,0 C 20,5 C 22,7 C 22,0 C 0,0 C 59 % 71 % 0 % 1022,4 hPa 0,0 l/m 0,0 km/h (0 Bft) W-SW 247 0 min 14,6 C 22,0 C 0,0 km/h (0 Bft)
16.10.2017 17:35 22,8 C 15,0 C 19,9 C 22,4 C 21,5 C 0,0 C 60 % 72 % 0 % 1022,4 hPa 0,0 l/m 0,0 km/h (0 Bft) W-SW 247 0 min 14,6 C 21,5 C 0,0 km/h (0 Bft)
16.10.2017 17:40 22,5 C 15,1 C 19,6 C 22,0 C 21,1 C 0,0 C 61 % 73 % 0 % 1022,4 hPa 0,0 l/m 0,0 km/h (0 Bft) W-SW 247 0 min 14,6 C 21,1 C 0,0 km/h (0 Bft)
16.10.2017 17:45 22,0 C 15,1 C 19,2 C 21,5 C 20,6 C 0,0 C 62 % 74 % 0 % 1022,5 hPa 0,0 l/m 0,0 km/h (0 Bft) SW 225 0 min 14,4 C 20,6 C 0,0 km/h (0 Bft)
16.10.2017 17:50 21,7 C 15,1 C 18,9 C 21,2 C 20,3 C 0,0 C 62 % 75 % 0 % 1022,5 hPa 0,0 l/m 0,0 km/h (0 Bft) SW 225 0 min 14,1 C 20,3 C 0,0 km/h (0 Bft)
16.10.2017 17:55 21,3 C 15,1 C 18,5 C 20,7 C 19,5 C 0,0 C 64 % 76 % 0 % 1022,5 hPa 0,0 l/m 0,0 km/h (0 Bft) SW 225 0 min 14,2 C 19,5 C 0,0 km/h (0 Bft)
16.10.2017 18:00 20,9 C 15,1 C 18,3 C 20,3 C 19,1 C 0,0 C 64 % 77 % 0 % 1022,5 hPa 0,0 l/m 0,0 km/h (0 Bft) SW 225 0 min 13,8 C 19,1 C 0,0 km/h (0 Bft)
16.10.2017 18:05 20,4 C 15,1 C 18,0 C 19,8 C 18,7 C 0,0 C 65 % 78 % 0 % 1022,6 hPa 0,0 l/m 0,0 km/h (0 Bft) S 180 0 min 13,6 C 18,7 C 0,0 km/h (0 Bft)
16.10.2017 18:10 20,1 C 15,2 C 17,9 C 19,5 C 18,4 C 0,0 C 66 % 78 % 0 % 1022,6 hPa 0,0 l/m 0,0 km/h (0 Bft) S 180 0 min 13,5 C 18,4 C 0,0 km/h (0 Bft)
16.10.2017 18:15 19,7 C 15,3 C 17,6 C 19,1 C 17,9 C 0,0 C 67 % 79 % 0 % 1022,6 hPa 0,0 l/m 0,0 km/h (0 Bft) S 180 0 min 13,4 C 17,9 C 0,0 km/h (0 Bft)
16.10.2017 18:20 19,4 C 15,3 C 17,4 C 18,8 C 17,6 C 0,0 C 68 % 80 % 0 % 1022,6 hPa 0,0 l/m 0,0 km/h (0 Bft) S 180 0 min 13,3 C 17,6 C 0,0 km/h (0 Bft)
16.10.2017 18:25 19,1 C 15,3 C 17,2 C 18,5 C 17,2 C 0,0 C 68 % 80 % 0 % 1022,8 hPa 0,0 l/m 0,0 km/h (0 Bft) S 180 0 min 13,1 C 17,2 C 0,0 km/h (0 Bft)
16.10.2017 18:30 18,9 C 15,3 C 17,0 C 18,2 C 16,9 C 0,0 C 68 % 81 % 0 % 1022,8 hPa 0,0 l/m 0,0 km/h (0 Bft) S 180 0 min 12,9 C 16,9 C 0,0 km/h (0 Bft)
16.10.2017 18:35 18,4 C 15,4 C 16,7 C 17,8 C 16,6 C 0,0 C 69 % 81 % 0 % 1022,8 hPa 0,0 l/m 0,0 km/h (0 Bft) S 180 0 min 12,6 C 16,6 C 0,0 km/h (0 Bft)
16.10.2017 18:40 18,3 C 15,4 C 16,5 C 17,7 C 16,4 C 0,0 C 70 % 81 % 0 % 1022,8 hPa 0,0 l/m 0,0 km/h (0 Bft) S 180 0 min 12,7 C 16,4 C 0,0 km/h (0 Bft)
16.10.2017 18:45 17,9 C 15,4 C 16,1 C 17,3 C 16,0 C 0,0 C 71 % 82 % 0 % 1022,5 hPa 0,0 l/m 0,0 km/h (0 Bft) S 180 0 min 12,6 C 16,0 C 0,0 km/h (0 Bft)
16.10.2017 18:50 17,6 C 15,4 C 15,9 C 17,0 C 15,9 C 0,0 C 72 % 83 % 0 % 1022,5 hPa 0,0 l/m 0,0 km/h (0 Bft) S 180 0 min 12,5 C 15,9 C 0,0 km/h (0 Bft)
16.10.2017 18:55 17,5 C 15,5 C 15,7 C 16,9 C 15,7 C 0,0 C 73 % 83 % 0 % 1022,5 hPa 0,0 l/m 0,0 km/h (0 Bft) S 180 0 min 12,6 C 15,7 C 0,0 km/h (0 Bft)
16.10.2017 19:00 17,1 C 15,5 C 15,5 C 16,6 C 15,5 C 0,0 C 73 % 83 % 0 % 1022,5 hPa 0,0 l/m 0,0 km/h (0 Bft) S 180 0 min 12,2 C 15,5 C 0,0 km/h (0 Bft)
16.10.2017 19:05 16,8 C 15,5 C 15,3 C 16,3 C 15,3 C 0,0 C 75 % 83 % 0 % 1023,1 hPa 0,0 l/m 0,0 km/h (0 Bft) S 180 0 min 12,3 C 15,3 C 0,0 km/h (0 Bft)
16.10.2017 19:10 16,7 C 15,5 C 15,1 C 16,2 C 15,3 C 0,0 C 75 % 84 % 0 % 1023,1 hPa 0,0 l/m 0,0 km/h (0 Bft) S 180 0 min 12,2 C 15,3 C 0,0 km/h (0 Bft)
16.10.2017 19:15 16,4 C 15,5 C 14,9 C 16,0 C 15,2 C 0,0 C 76 % 84 % 0 % 1023,1 hPa 0,0 l/m 0,0 km/h (0 Bft) S 180 0 min 12,2 C 15,2 C 0,0 km/h (0 Bft)
16.10.2017 19:20 16,3 C 15,4 C 14,8 C 15,9 C 15,2 C 0,0 C 77 % 84 % 0 % 1023,1 hPa 0,0 l/m 0,0 km/h (0 Bft) S 180 0 min 12,3 C 15,2 C 0,0 km/h (0 Bft)
16.10.2017 19:25 16,1 C 15,5 C 14,7 C 15,7 C 14,9 C 0,0 C 77 % 84 % 0 % 1022,9 hPa 0,0 l/m 0,0 km/h (0 Bft) S 180 0 min 12,1 C 14,9 C 0,0 km/h (0 Bft)
16.10.2017 19:30 15,8 C 15,5 C 14,7 C 15,5 C 14,8 C 0,0 C 77 % 85 % 0 % 1022,9 hPa 0,0 l/m 0,0 km/h (0 Bft) S 180 0 min 11,8 C 14,8 C 0,0 km/h (0 Bft)
16.10.2017 19:35 15,6 C 15,5 C 14,6 C 15,3 C 14,7 C 0,0 C 78 % 85 % 0 % 1022,9 hPa 0,0 l/m 0,0 km/h (0 Bft) S 180 0 min 11,8 C 14,7 C 0,0 km/h (0 Bft)
16.10.2017 19:40 15,5 C 15,4 C 14,5 C 15,2 C 14,7 C 0,0 C 79 % 85 % 0 % 1022,9 hPa 0,0 l/m 0,0 km/h (0 Bft) S 180 0 min 11,9 C 14,7 C 0,0 km/h (0 Bft)
16.10.2017 19:45 15,4 C 15,5 C 14,5 C 15,1 C 14,5 C 0,0 C 79 % 85 % 0 % 1022,7 hPa 0,0 l/m 0,0 km/h (0 Bft) S 180 0 min 11,8 C 14,5 C 0,0 km/h (0 Bft)
16.10.2017 19:50 15,2 C 15,5 C 14,3 C 14,9 C 14,3 C 0,0 C 79 % 85 % 0 % 1022,7 hPa 0,0 l/m 0,0 km/h (0 Bft) S 180 0 min 11,6 C 14,3 C 0,0 km/h (0 Bft)
16.10.2017 19:55 15,0 C 15,5 C 14,2 C 14,7 C 14,2 C 0,0 C 80 % 85 % 0 % 1022,7 hPa 0,0 l/m 0,0 km/h (0 Bft) S 180 0 min 11,6 C 14,2 C 0,0 km/h (0 Bft)
16.10.2017 20:00 15,0 C 15,5 C 14,1 C 14,7 C 14,2 C 0,0 C 80 % 85 % 0 % 1022,7 hPa 0,0 l/m 0,0 km/h (0 Bft) S 180 0 min 11,6 C 14,2 C 0,0 km/h (0 Bft)
16.10.2017 20:05 14,9 C 15,5 C 14,1 C 14,6 C 14,1 C 0,0 C 81 % 85 % 0 % 1023,4 hPa 0,0 l/m 0,0 km/h (0 Bft) S 180 0 min 11,7 C 14,1 C 0,0 km/h (0 Bft)
16.10.2017 20:10 14,7 C 15,5 C 14,0 C 14,5 C 14,1 C 0,0 C 81 % 85 % 0 % 1023,4 hPa 0,0 l/m 0,0 km/h (0 Bft) S 180 0 min 11,5 C 14,1 C 0,0 km/h (0 Bft)
16.10.2017 20:15 14,6 C 15,6 C 13,9 C 14,4 C 14,0 C 0,0 C 81 % 85 % 0 % 1023,4 hPa 0,0 l/m 0,0 km/h (0 Bft) S 180 0 min 11,4 C 14,0 C 0,0 km/h (0 Bft)
16.10.2017 20:20 14,5 C 15,6 C 13,9 C 14,3 C 14,0 C 0,0 C 81 % 85 % 0 % 1023,4 hPa 0,0 l/m 0,0 km/h (0 Bft) S 180 0 min 11,3 C 14,0 C 0,0 km/h (0 Bft)
16.10.2017 20:25 14,4 C 15,6 C 13,9 C 14,3 C 14,1 C 0,0 C 82 % 85 % 0 % 1022,9 hPa 0,0 l/m 0,0 km/h (0 Bft) S 180 0 min 11,4 C 14,1 C 0,0 km/h (0 Bft)
16.10.2017 20:30 14,4 C 15,6 C 13,9 C 14,3 C 14,2 C 0,0 C 82 % 85 % 0 % 1022,9 hPa 0,0 l/m 0,0 km/h (0 Bft) S 180 0 min 11,4 C 14,2 C 0,0 km/h (0 Bft)
16.10.2017 20:35 14,2 C 15,6 C 13,8 C 14,2 C 14,1 C 0,0 C 83 % 85 % 0 % 1022,9 hPa 0,0 l/m 0,0 km/h (0 Bft) S 180 0 min 11,4 C 14,1 C 0,0 km/h (0 Bft)
16.10.2017 20:40 14,3 C 15,6 C 13,9 C 14,3 C 14,2 C 0,0 C 83 % 85 % 0 % 1022,9 hPa 0,0 l/m 0,0 km/h (0 Bft) S 180 0 min 11,5 C 14,2 C 0,0 km/h (0 Bft)
16.10.2017 20:45 14,2 C 15,5 C 13,7 C 14,2 C 14,2 C 0,0 C 83 % 85 % 0 % 1023,1 hPa 0,0 l/m 0,0 km/h (0 Bft) S 180 0 min 11,4 C 14,2 C 0,0 km/h (0 Bft)
16.10.2017 20:50 14,3 C 15,5 C 13,7 C 14,3 C 14,2 C 0,0 C 83 % 85 % 0 % 1023,1 hPa 0,0 l/m 0,0 km/h (0 Bft) S 180 0 min 11,5 C 14,2 C 0,0 km/h (0 Bft)
16.10.2017 20:55 14,3 C 15,5 C 13,7 C 14,3 C 14,3 C 0,0 C 83 % 85 % 0 % 1023,1 hPa 0,0 l/m 0,0 km/h (0 Bft) S 180 0 min 11,5 C 14,3 C 0,0 km/h (0 Bft)
16.10.2017 21:00 14,3 C 15,5 C 13,7 C 14,3 C 14,3 C 0,0 C 83 % 85 % 0 % 1023,1 hPa 0,0 l/m 0,0 km/h (0 Bft) S 180 0 min 11,5 C 14,3 C 0,0 km/h (0 Bft)
16.10.2017 21:05 14,2 C 15,5 C 13,6 C 14,3 C 14,3 C 0,1 C 83 % 85 % 0 % 1022,9 hPa 0,0 l/m 0,0 km/h (0 Bft) S 180 0 min 11,4 C 14,3 C 0,0 km/h (0 Bft)
16.10.2017 21:10 14,3 C 15,5 C 13,6 C 14,3 C 14,2 C 0,0 C 83 % 85 % 0 % 1022,9 hPa 0,0 l/m 0,0 km/h (0 Bft) S 180 0 min 11,5 C 14,2 C 0,0 km/h (0 Bft)
16.10.2017 21:15 14,3 C 15,5 C 13,5 C 14,3 C 14,2 C 0,0 C 83 % 85 % 0 % 1022,9 hPa 0,0 l/m 0,0 km/h (0 Bft) S 180 0 min 11,5 C 14,2 C 0,0 km/h (0 Bft)
16.10.2017 21:20 14,3 C 15,5 C 13,6 C 14,3 C 14,2 C 0,0 C 83 % 85 % 0 % 1022,9 hPa 0,0 l/m 0,0 km/h (0 Bft) S 180 0 min 11,5 C 14,2 C 0,0 km/h (0 Bft)
16.10.2017 21:25 14,3 C 15,5 C 13,6 C 14,3 C 14,2 C 0,0 C 83 % 85 % 0 % 1022,9 hPa 0,0 l/m 0,0 km/h (0 Bft) S 180 0 min 11,5 C 14,2 C 0,0 km/h (0 Bft)
16.10.2017 21:30 14,3 C 15,5 C 13,5 C 14,3 C 14,2 C 0,0 C 83 % 85 % 0 % 1022,9 hPa 0,0 l/m 0,0 km/h (0 Bft) S 180 0 min 11,5 C 14,2 C 0,0 km/h (0 Bft)
16.10.2017 21:35 14,2 C 15,5 C 13,6 C 14,2 C 14,2 C 0,0 C 83 % 84 % 0 % 1022,9 hPa 0,0 l/m 0,0 km/h (0 Bft) S 180 0 min 11,4 C 14,2 C 0,0 km/h (0 Bft)
16.10.2017 21:40 14,1 C 15,5 C 13,6 C 14,2 C 14,2 C 0,1 C 83 % 84 % 0 % 1022,9 hPa 0,0 l/m 0,0 km/h (0 Bft) S 180 0 min 11,3 C 14,2 C 0,0 km/h (0 Bft)
16.10.2017 21:45 14,1 C 15,5 C 13,4 C 14,1 C 14,1 C 0,0 C 83 % 84 % 0 % 1022,8 hPa 0,0 l/m 0,0 km/h (0 Bft) S 180 0 min 11,3 C 14,1 C 0,0 km/h (0 Bft)
16.10.2017 21:50 14,0 C 15,5 C 13,4 C 14,0 C 14,0 C 0,0 C 83 % 84 % 0 % 1022,8 hPa 0,0 l/m 0,0 km/h (0 Bft) S 180 0 min 11,2 C 14,0 C 0,0 km/h (0 Bft)
16.10.2017 21:55 13,9 C 15,5 C 13,3 C 13,9 C 13,8 C 0,0 C 83 % 85 % 0 % 1022,8 hPa 0,0 l/m 0,0 km/h (0 Bft) S 180 0 min 11,1 C 13,8 C 0,0 km/h (0 Bft)
16.10.2017 22:00 13,9 C 15,5 C 13,1 C 13,8 C 13,7 C 0,0 C 83 % 85 % 0 % 1022,8 hPa 0,0 l/m 0,0 km/h (0 Bft) S 180 0 min 11,1 C 13,7 C 0,0 km/h (0 Bft)
16.10.2017 22:05 13,7 C 15,5 C 13,1 C 13,7 C 13,6 C 0,0 C 83 % 85 % 0 % 1022,8 hPa 0,0 l/m 0,0 km/h (0 Bft) S 180 0 min 10,9 C 13,6 C 0,0 km/h (0 Bft)
16.10.2017 22:10 13,6 C 15,5 C 13,2 C 13,6 C 13,5 C 0,0 C 83 % 84 % 0 % 1022,8 hPa 0,0 l/m 0,0 km/h (0 Bft) S 180 0 min 10,8 C 13,5 C 0,0 km/h (0 Bft)
16.10.2017 22:15 13,5 C 15,5 C 13,1 C 13,5 C 13,5 C 0,0 C 84 % 84 % 0 % 1022,8 hPa 0,0 l/m 0,0 km/h (0 Bft) S 180 0 min 10,8 C 13,5 C 0,0 km/h (0 Bft)
16.10.2017 22:20 13,5 C 15,4 C 13,1 C 13,4 C 13,3 C 0,0 C 84 % 84 % 0 % 1022,8 hPa 0,0 l/m 0,0 km/h (0 Bft) S 180 0 min 10,8 C 13,3 C 0,0 km/h (0 Bft)
16.10.2017 22:25 13,2 C 15,5 C 12,9 C 13,1 C 12,8 C 0,0 C 84 % 84 % 0 % 1022,9 hPa 0,0 l/m 0,0 km/h (0 Bft) S 180 0 min 10,6 C 12,8 C 0,0 km/h (0 Bft)
16.10.2017 22:30 13,1 C 15,5 C 12,8 C 12,9 C 12,6 C 0,0 C 84 % 84 % 0 % 1022,9 hPa 0,0 l/m 0,0 km/h (0 Bft) S 180 0 min 10,5 C 12,6 C 0,0 km/h (0 Bft)
16.10.2017 22:35 13,1 C 15,4 C 12,7 C 13,0 C 12,7 C 0,0 C 84 % 85 % 0 % 1022,9 hPa 0,0 l/m 0,0 km/h (0 Bft) S 180 0 min 10,5 C 12,7 C 0,0 km/h (0 Bft)
16.10.2017 22:40 12,9 C 15,4 C 12,6 C 12,8 C 12,6 C 0,0 C 84 % 84 % 0 % 1022,9 hPa 0,0 l/m 0,0 km/h (0 Bft) S 180 0 min 10,3 C 12,6 C 0,0 km/h (0 Bft)
16.10.2017 22:45 12,8 C 15,5 C 12,6 C 12,6 C 12,2 C 0,0 C 84 % 84 % 0 % 1022,8 hPa 0,0 l/m 0,0 km/h (0 Bft) S 180 0 min 10,2 C 12,2 C 0,0 km/h (0 Bft)
16.10.2017 22:50 12,6 C 15,5 C 12,4 C 12,4 C 12,0 C 0,0 C 84 % 84 % 0 % 1022,8 hPa 0,0 l/m 0,0 km/h (0 Bft) S 180 0 min 10,0 C 12,0 C 0,0 km/h (0 Bft)
16.10.2017 22:55 12,4 C 15,5 C 12,4 C 12,3 C 12,0 C 0,0 C 85 % 84 % 0 % 1022,8 hPa 0,0 l/m 0,0 km/h (0 Bft) S 180 0 min 9,9 C 12,0 C 0,0 km/h (0 Bft)
16.10.2017 23:00 12,4 C 15,5 C 12,4 C 12,3 C 12,2 C 0,0 C 85 % 84 % 0 % 1022,8 hPa 0,0 l/m 0,3 km/h (0 Bft) S 180 0 min 9,9 C 12,2 C 0,0 km/h (0 Bft)
16.10.2017 23:05 12,4 C 15,5 C 12,4 C 12,5 C 12,5 C 0,1 C 85 % 84 % 0 % 1022,9 hPa 0,0 l/m 0,3 km/h (0 Bft) S 180 0 min 9,9 C 12,5 C 0,0 km/h (0 Bft)
16.10.2017 23:10 12,4 C 15,4 C 12,4 C 12,5 C 12,5 C 0,1 C 85 % 84 % 0 % 1022,9 hPa 0,0 l/m 0,0 km/h (0 Bft) S 180 0 min 9,9 C 12,5 C 0,0 km/h (0 Bft)
16.10.2017 23:15 12,3 C 15,4 C 12,3 C 12,3 C 12,2 C 0,0 C 84 % 84 % 0 % 1022,9 hPa 0,0 l/m 0,0 km/h (0 Bft) S 180 0 min 9,7 C 12,2 C 0,0 km/h (0 Bft)
16.10.2017 23:20 12,2 C 15,4 C 12,3 C 12,1 C 11,9 C 0,0 C 84 % 84 % 0 % 1022,9 hPa 0,0 l/m 0,0 km/h (0 Bft) S 180 0 min 9,6 C 11,9 C 0,0 km/h (0 Bft)
16.10.2017 23:25 12,1 C 15,4 C 12,1 C 12,0 C 11,7 C 0,0 C 84 % 84 % 0 % 1022,4 hPa 0,0 l/m 0,0 km/h (0 Bft) S 180 0 min 9,5 C 11,7 C 0,0 km/h (0 Bft)
16.10.2017 23:30 12,0 C 15,3 C 12,0 C 11,8 C 11,5 C 0,0 C 84 % 84 % 0 % 1022,4 hPa 0,0 l/m 0,0 km/h (0 Bft) S 180 0 min 9,4 C 11,5 C 0,0 km/h (0 Bft)
16.10.2017 23:35 11,9 C 15,4 C 12,0 C 11,7 C 11,4 C 0,0 C 84 % 84 % 0 % 1022,4 hPa 0,0 l/m 0,0 km/h (0 Bft) S 180 0 min 9,3 C 11,4 C 0,0 km/h (0 Bft)
16.10.2017 23:40 11,9 C 15,4 C 12,1 C 11,7 C 11,2 C 0,0 C 84 % 83 % 0 % 1022,4 hPa 0,0 l/m 0,0 km/h (0 Bft) S 180 0 min 9,3 C 11,2 C 0,0 km/h (0 Bft)
16.10.2017 23:45 11,7 C 15,5 C 12,0 C 11,5 C 11,2 C 0,0 C 85 % 83 % 0 % 1022,4 hPa 0,0 l/m 0,0 km/h (0 Bft) S 180 0 min 9,3 C 11,2 C 0,0 km/h (0 Bft)
16.10.2017 23:50 11,6 C 15,5 C 11,8 C 11,5 C 11,2 C 0,0 C 85 % 84 % 0 % 1022,4 hPa 0,0 l/m 0,0 km/h (0 Bft) S 180 0 min 9,2 C 11,2 C 0,0 km/h (0 Bft)
16.10.2017 23:55 11,5 C 15,5 C 11,6 C 11,4 C 11,2 C 0,0 C 85 % 84 % 0 % 1022,4 hPa 0,0 l/m 0,0 km/h (0 Bft) S 180 0 min 9,1 C 11,2 C 0,0 km/h (0 Bft)
_ Min-Zeit 07:55 10:25 07:10 06:45 06:45 00:00 16:05 16:05 00:00 15:45 - 00:00 - - - 07:55 06:45 00:00
Minimum _ 5,7 C 13,2 C 7,5 C 6,6 C 6,6 C 0,0 C 55 % 65 % 0 % 1022,1 hPa - 0,0 km/h (0 Bft) - - - 3,7 C 6,6 C 0,0 km/h (0 Bft)
_ Max-Zeit 16:30 20:15 15:40 15:35 15:35 13:25 08:15 19:30 12:40 11:25 00:00 11:25 - - 07:45 15:30 15:35 12:25
Maximum _ 24,1 C 15,6 C 22,4 C 28,5 C 28,5 C 6,3 C 88 % 85 % 100 % 1023,8 hPa 0,0 l/m 4,7 km/h
NW (1 Bft)
- - 5 min 15,2 C 28,5 C 13,0 km/h
W (3 Bft)
Durchschnitt _ 13,6 C 14,5 C 13,7 C 14,9 C 14,7 C 1,4 C 79 % 79 % 28 % 1022,9 hPa #0,0 l/m 0,7 km/h (0 Bft) W-SW - #5:25 h 9,7 C 14,7 C 1,1 km/h (1 Bft)
2017 www.wetterstation-wechselburg.de